createdAt,value
2023-01-04T00:00:42.410Z,5.68
2023-01-04T00:03:11.620Z,5.90
2023-01-04T00:05:41.986Z,11.85
2023-01-04T00:08:11.610Z,5.88
2023-01-04T00:10:40.771Z,5.45
2023-01-04T00:13:09.616Z,9.35
2023-01-04T00:15:39.939Z,8.38
2023-01-04T00:18:10.211Z,7.30
2023-01-04T00:20:40.859Z,7.20
2023-01-04T00:23:10.505Z,8.15
2023-01-04T00:25:41.432Z,8.75
2023-01-04T00:28:10.370Z,8.05
2023-01-04T00:30:39.880Z,6.00
2023-01-04T00:33:08.939Z,7.43
2023-01-04T00:35:46.537Z,7.63
2023-01-04T00:38:16.837Z,7.47
2023-01-04T00:40:45.894Z,8.50
2023-01-04T00:43:14.822Z,6.72
2023-01-04T00:45:48.094Z,6.30
2023-01-04T00:48:16.927Z,9.30
2023-01-04T00:50:46.656Z,6.57
2023-01-04T00:53:18.674Z,9.48
2023-01-04T00:55:48.453Z,8.88
2023-01-04T00:58:17.361Z,8.75
2023-01-04T01:00:46.347Z,6.70
2023-01-04T01:03:15.928Z,8.57
2023-01-04T01:05:44.854Z,9.15
2023-01-04T01:08:29.338Z,12.18
2023-01-04T01:11:06.248Z,11.00
2023-01-04T01:13:36.933Z,9.65
2023-01-04T01:16:07.719Z,6.63
2023-01-04T01:18:38.829Z,10.38
2023-01-04T01:21:08.886Z,8.30
2023-01-04T01:23:38.296Z,10.93
2023-01-04T01:26:14.292Z,8.95
2023-01-04T01:28:44.613Z,12.38
2023-01-04T01:31:17.169Z,8.10
2023-01-04T01:33:48.077Z,8.65
2023-01-04T01:36:20.176Z,11.10
2023-01-04T01:38:49.370Z,13.77
2023-01-04T01:41:24.510Z,8.82
2023-01-04T01:43:57.465Z,9.38
2023-01-04T01:46:33.824Z,11.55
2023-01-04T01:49:14.391Z,10.52
2023-01-04T01:51:44.189Z,11.30
2023-01-04T01:54:21.103Z,8.73
2023-01-04T01:56:53.345Z,7.78
2023-01-04T01:59:24.343Z,7.32
2023-01-04T02:01:53.608Z,14.93
2023-01-04T02:04:22.655Z,8.18
2023-01-04T02:06:57.227Z,9.13
2023-01-04T02:09:26.553Z,9.13
2023-01-04T02:11:56.573Z,7.63
2023-01-04T02:14:28.145Z,7.70
2023-01-04T02:17:08.947Z,9.23
2023-01-04T02:20:25.846Z,9.73
2023-01-04T02:23:37.939Z,9.27
2023-01-04T02:27:04.489Z,6.82
2023-01-04T02:30:38.393Z,8.02
2023-01-04T02:33:38.660Z,12.18
2023-01-04T02:36:18.163Z,7.32
2023-01-04T02:39:05.108Z,9.50
2023-01-04T02:41:41.513Z,7.78
2023-01-04T02:44:34.066Z,9.50
2023-01-04T02:47:11.957Z,10.82
2023-01-04T02:50:13.655Z,8.38
2023-01-04T02:52:42.084Z,9.13
2023-01-04T02:55:10.643Z,7.38
2023-01-04T02:57:52.827Z,9.18
2023-01-04T03:00:57.776Z,8.10
2023-01-04T03:03:59.078Z,8.80
2023-01-04T03:06:39.327Z,8.63
2023-01-04T03:09:15.548Z,12.98
2023-01-04T03:12:04.697Z,10.07
2023-01-04T03:14:39.081Z,10.80
2023-01-04T03:17:14.604Z,8.27
2023-01-04T03:19:55.273Z,13.18
2023-01-04T03:23:00.089Z,6.97
2023-01-04T03:25:50.688Z,7.07
2023-01-04T03:28:40.104Z,7.38
2023-01-04T03:31:32.182Z,9.38
2023-01-04T03:34:18.302Z,7.72
2023-01-04T03:36:58.058Z,5.55
2023-01-04T03:40:03.477Z,10.65
2023-01-04T03:42:58.970Z,5.63
2023-01-04T03:45:50.209Z,6.25
2023-01-04T03:48:33.715Z,5.78
2023-01-04T03:51:10.260Z,5.50
2023-01-04T03:53:49.543Z,7.90
2023-01-04T03:56:22.634Z,7.35
2023-01-04T03:58:51.982Z,7.03
2023-01-04T04:01:22.322Z,10.15
2023-01-04T04:04:08.431Z,10.27
2023-01-04T04:06:54.446Z,6.72
2023-01-04T04:09:23.084Z,8.43
2023-01-04T04:11:52.822Z,6.20
2023-01-04T04:14:21.277Z,6.53
2023-01-04T04:16:49.743Z,6.30
2023-01-04T04:19:18.423Z,7.20
2023-01-04T04:21:46.699Z,6.43
2023-01-04T04:24:20.394Z,6.95
2023-01-04T04:26:49.010Z,6.65
2023-01-04T04:29:19.162Z,6.43
2023-01-04T04:31:47.628Z,8.07
2023-01-04T04:34:16.131Z,8.15
2023-01-04T04:36:44.481Z,9.30
2023-01-04T04:39:13.413Z,8.50
2023-01-04T04:41:41.844Z,12.10
2023-01-04T04:44:16.286Z,13.15
2023-01-04T04:46:47.340Z,8.55
2023-01-04T04:49:16.949Z,10.57
2023-01-04T04:51:46.749Z,10.43
2023-01-04T04:54:20.235Z,12.02
2023-01-04T04:56:52.002Z,13.35
2023-01-04T04:59:20.455Z,12.63
2023-01-04T05:01:50.306Z,12.18
2023-01-04T05:04:19.803Z,11.57
2023-01-04T05:06:51.104Z,12.65
2023-01-04T05:09:19.545Z,12.07
2023-01-04T05:12:05.502Z,12.70
2023-01-04T05:14:33.903Z,10.80
2023-01-04T05:17:03.726Z,11.55
2023-01-04T05:19:32.548Z,12.73
2023-01-04T05:22:00.977Z,12.57
2023-01-04T05:24:29.740Z,11.25
2023-01-04T05:26:58.130Z,11.02
2023-01-04T05:29:43.765Z,10.75
2023-01-04T05:32:16.024Z,10.65
2023-01-04T05:34:45.042Z,12.35
2023-01-04T05:37:18.872Z,11.48
2023-01-04T05:39:49.317Z,11.52
2023-01-04T05:42:27.997Z,11.32
2023-01-04T05:44:59.072Z,11.63
2023-01-04T05:47:30.589Z,12.23
2023-01-04T05:49:58.999Z,11.02
2023-01-04T05:52:27.862Z,10.77
2023-01-04T05:54:56.572Z,12.00
2023-01-04T05:57:25.287Z,10.45
2023-01-04T05:59:53.599Z,11.82
2023-01-04T06:02:25.112Z,9.73
2023-01-04T06:04:59.221Z,10.68
2023-01-04T06:07:28.446Z,9.80
2023-01-04T06:09:57.660Z,14.13
2023-01-04T06:12:26.583Z,11.30
2023-01-04T06:14:55.108Z,10.57
2023-01-04T06:17:23.668Z,9.77
2023-01-04T06:19:54.821Z,12.02
2023-01-04T06:22:23.977Z,9.68
2023-01-04T06:24:52.606Z,8.63
2023-01-04T06:27:21.005Z,8.70
2023-01-04T06:29:49.364Z,9.35
2023-01-04T06:32:17.908Z,8.23
2023-01-04T06:34:46.317Z,9.65
2023-01-04T06:37:15.992Z,8.63
2023-01-04T06:39:44.264Z,9.63
2023-01-04T06:42:26.499Z,13.05
2023-01-04T06:44:55.185Z,9.45
2023-01-04T06:47:23.977Z,11.70
2023-01-04T06:49:52.479Z,10.07
2023-01-04T06:52:24.817Z,9.48
2023-01-04T06:54:55.993Z,12.15
2023-01-04T06:57:24.374Z,9.90
2023-01-04T06:59:52.624Z,15.27
2023-01-04T07:02:21.079Z,10.02
2023-01-04T07:04:49.494Z,9.98
2023-01-04T07:07:17.871Z,14.73
2023-01-04T07:09:47.790Z,10.70
2023-01-04T07:12:16.202Z,14.73
2023-01-04T07:14:44.609Z,8.80
2023-01-04T07:17:13.011Z,8.60
2023-01-04T07:19:41.654Z,6.80
2023-01-04T07:22:10.008Z,5.63
2023-01-04T07:24:39.361Z,8.77
2023-01-04T07:27:09.067Z,10.98
2023-01-04T07:29:37.833Z,7.88
2023-01-04T07:32:11.852Z,10.52
2023-01-04T07:34:43.286Z,8.02
2023-01-04T07:37:13.194Z,8.55
2023-01-04T07:39:41.546Z,7.10
2023-01-04T07:42:12.012Z,9.05
2023-01-04T07:44:40.660Z,9.27
2023-01-04T07:47:09.411Z,7.50
2023-01-04T07:49:37.910Z,10.98
2023-01-04T07:52:06.552Z,6.95
2023-01-04T07:54:35.201Z,8.45
2023-01-04T07:57:03.876Z,8.73
2023-01-04T07:59:34.240Z,8.25
2023-01-04T08:02:03.052Z,6.45
2023-01-04T08:04:35.185Z,9.23
2023-01-04T08:07:04.003Z,10.75
2023-01-04T08:09:32.812Z,9.50
2023-01-04T08:12:01.208Z,9.52
2023-01-04T08:14:29.881Z,9.30
2023-01-04T08:16:59.823Z,10.55
2023-01-04T08:19:29.257Z,9.00
2023-01-04T08:21:57.938Z,12.07
2023-01-04T08:24:27.425Z,11.00
2023-01-04T08:26:56.554Z,12.73
2023-01-04T08:29:32.779Z,11.15
2023-01-04T08:32:08.616Z,13.10
2023-01-04T08:34:39.519Z,11.77
2023-01-04T08:37:08.873Z,10.40
2023-01-04T08:39:45.358Z,14.75
2023-01-04T08:42:22.515Z,13.13
2023-01-04T08:44:59.831Z,13.00
2023-01-04T08:47:31.067Z,13.93
2023-01-04T08:50:06.477Z,14.50
2023-01-04T08:52:40.883Z,12.85
2023-01-04T08:55:13.204Z,14.77
2023-01-04T08:57:43.423Z,17.55
2023-01-04T09:00:14.793Z,14.40
2023-01-04T09:02:44.722Z,14.65
2023-01-04T09:05:22.598Z,19.02
2023-01-04T09:07:51.878Z,13.68
2023-01-04T09:10:20.707Z,12.55
2023-01-04T09:12:49.020Z,16.10
2023-01-04T09:15:18.479Z,13.57
2023-01-04T09:18:20.526Z,17.20
2023-01-04T09:20:39.511Z,13.07
2023-01-04T09:23:08.345Z,15.07
2023-01-04T09:25:41.833Z,13.93
2023-01-04T09:28:10.961Z,13.27
2023-01-04T09:30:45.335Z,14.70
2023-01-04T09:33:17.398Z,13.07
2023-01-04T09:35:45.949Z,13.55
2023-01-04T09:38:16.095Z,16.48
2023-01-04T09:40:55.771Z,17.73
2023-01-04T09:43:25.611Z,12.63
2023-01-04T09:46:01.740Z,11.20
2023-01-04T09:48:34.263Z,15.95
2023-01-04T09:51:07.244Z,12.90
2023-01-04T09:53:41.319Z,11.65
2023-01-04T09:56:18.028Z,16.92
2023-01-04T09:58:46.618Z,12.80
2023-01-04T10:01:18.630Z,21.90
2023-01-04T10:03:57.773Z,15.55
2023-01-04T10:06:26.524Z,24.88
2023-01-04T10:08:57.391Z,15.35
2023-01-04T10:11:40.857Z,14.55
2023-01-04T10:14:30.851Z,16.02
2023-01-04T10:17:20.275Z,13.23
2023-01-04T10:23:52.094Z,18.98
2023-01-04T10:26:27.960Z,14.80
2023-01-04T10:29:25.150Z,13.93
2023-01-04T10:31:58.246Z,10.18
2023-01-04T10:34:30.875Z,14.35
2023-01-04T10:37:14.082Z,16.65
2023-01-04T10:39:43.645Z,9.75
2023-01-04T10:42:21.806Z,9.15
2023-01-04T10:45:09.630Z,11.52
2023-01-04T10:47:50.846Z,10.80
2023-01-04T10:50:24.773Z,9.25
2023-01-04T10:53:03.349Z,7.90
2023-01-04T10:55:40.860Z,8.15
2023-01-04T10:58:35.872Z,13.05
2023-01-04T11:01:10.591Z,7.95
2023-01-04T11:03:46.376Z,10.55
2023-01-04T11:06:18.700Z,13.82
2023-01-04T11:08:54.885Z,12.95
2023-01-04T11:11:29.740Z,8.82
2023-01-04T11:14:00.129Z,7.55
2023-01-04T11:16:31.032Z,11.70
2023-01-04T11:18:59.914Z,8.77
2023-01-04T11:21:35.743Z,10.35
2023-01-04T11:24:31.039Z,15.73
2023-01-04T11:26:59.808Z,11.00
2023-01-04T11:29:36.996Z,8.88
2023-01-04T11:32:15.542Z,9.07
2023-01-04T11:34:51.942Z,6.40
2023-01-04T11:37:34.087Z,8.00
2023-01-04T11:40:28.517Z,12.75
2023-01-04T11:43:18.120Z,8.68
2023-01-04T11:46:02.543Z,6.43
2023-01-04T11:48:49.507Z,7.25
2023-01-04T11:51:37.627Z,6.82
2023-01-04T11:54:19.575Z,9.82
2023-01-04T11:57:11.323Z,8.57
2023-01-04T11:59:40.983Z,11.02
2023-01-04T12:02:58.484Z,9.00
2023-01-04T12:08:27.653Z,8.73
2023-01-04T12:10:56.266Z,10.20
2023-01-04T12:13:26.514Z,7.55
2023-01-04T12:16:06.684Z,12.63
2023-01-04T12:18:39.728Z,9.60
2023-01-04T12:21:10.225Z,10.85
2023-01-04T12:23:41.487Z,6.97
2023-01-04T12:26:12.680Z,10.25
2023-01-04T12:28:45.315Z,11.05
2023-01-04T12:31:33.871Z,10.68
2023-01-04T12:34:42.856Z,11.13
2023-01-04T12:37:13.204Z,9.80
2023-01-04T12:39:47.548Z,12.27
2023-01-04T12:42:26.645Z,12.32
2023-01-04T12:45:22.691Z,9.52
2023-01-04T12:48:10.971Z,9.15
2023-01-04T12:51:34.054Z,13.25
2023-01-04T12:54:04.683Z,11.77
2023-01-04T12:57:24.354Z,15.88
2023-01-04T12:59:58.070Z,11.95
2023-01-04T13:02:29.789Z,9.13
2023-01-04T13:05:53.311Z,8.70
2023-01-04T13:07:52.216Z,11.65
2023-01-04T13:10:30.794Z,11.70
2023-01-04T13:13:27.379Z,16.55
2023-01-04T13:16:11.585Z,10.80
2023-01-04T13:18:44.590Z,9.32
2023-01-04T13:21:17.630Z,9.65
2023-01-04T13:23:52.935Z,12.50
2023-01-04T13:26:43.191Z,11.40
2023-01-04T13:29:18.463Z,11.80
2023-01-04T13:31:57.141Z,14.20
2023-01-04T13:34:32.677Z,15.07
2023-01-04T13:37:21.658Z,14.40
2023-01-04T13:39:52.062Z,11.52
2023-01-04T13:42:28.326Z,11.88
2023-01-04T13:45:43.370Z,16.38
2023-01-04T13:48:14.870Z,12.38
2023-01-04T13:50:47.386Z,12.95
2023-01-04T13:53:22.762Z,15.20
2023-01-04T13:55:56.177Z,12.15
2023-01-04T13:58:26.883Z,12.30
2023-01-04T14:01:00.269Z,14.48
2023-01-04T14:03:38.044Z,14.55
2023-01-04T14:06:22.044Z,17.08
2023-01-04T14:09:00.740Z,12.10
2023-01-04T14:11:49.891Z,16.67
2023-01-04T14:14:25.682Z,15.25
2023-01-04T14:17:17.232Z,25.27
2023-01-04T14:19:49.930Z,22.95
2023-01-04T14:22:43.660Z,17.80
2023-01-04T14:25:56.273Z,14.90
2023-01-04T14:28:46.951Z,27.75
2023-01-04T14:31:38.028Z,22.33
2023-01-04T14:34:15.712Z,25.48
2023-01-04T14:36:45.207Z,23.23
2023-01-04T14:39:24.861Z,27.73
2023-01-04T14:42:00.100Z,29.10
2023-01-04T14:44:31.913Z,28.48
2023-01-04T14:47:04.690Z,31.17
2023-01-04T14:49:33.263Z,35.15
2023-01-04T14:52:04.443Z,27.88
2023-01-04T14:54:35.536Z,34.35
2023-01-04T14:57:04.533Z,31.60
2023-01-04T14:59:33.209Z,34.50
2023-01-04T15:02:01.844Z,24.48
2023-01-04T15:04:30.313Z,24.23
2023-01-04T15:07:01.397Z,34.95
2023-01-04T15:09:30.994Z,31.38
2023-01-04T15:12:00.730Z,31.25
2023-01-04T15:14:29.072Z,29.67
2023-01-04T15:16:57.430Z,28.10
2023-01-04T15:19:26.095Z,34.75
2023-01-04T15:21:54.519Z,36.97
2023-01-04T15:24:23.202Z,30.55
2023-01-04T15:26:51.486Z,31.58
2023-01-04T15:29:21.281Z,30.58
2023-01-04T15:31:49.673Z,28.70
2023-01-04T15:34:18.858Z,33.42
2023-01-04T15:36:47.334Z,32.28
2023-01-04T15:39:17.235Z,37.90
2023-01-04T15:42:03.031Z,26.17
2023-01-04T15:44:33.151Z,27.42
2023-01-04T15:47:01.891Z,37.63
2023-01-04T15:49:31.783Z,30.08
2023-01-04T15:52:00.346Z,38.55
2023-01-04T15:54:29.896Z,39.30
2023-01-04T15:57:00.409Z,33.13
2023-01-04T15:59:28.901Z,26.52
2023-01-04T16:01:59.101Z,32.25
2023-01-04T16:04:29.010Z,29.60
2023-01-04T16:06:57.465Z,31.83
2023-01-04T16:09:26.350Z,35.53
2023-01-04T16:12:21.069Z,43.45
2023-01-04T16:14:49.853Z,33.30
2023-01-04T16:17:19.691Z,35.88
2023-01-04T16:19:48.196Z,34.13
2023-01-04T16:22:16.717Z,38.10
2023-01-04T16:27:39.602Z,39.75
2023-01-04T16:30:12.211Z,31.33
2023-01-04T16:32:44.453Z,41.90
2023-01-04T16:35:13.050Z,35.03
2023-01-04T16:37:43.058Z,36.15
2023-01-04T16:40:13.447Z,36.75
2023-01-04T16:42:43.069Z,35.53
2023-01-04T16:45:12.791Z,36.65
2023-01-04T16:47:46.090Z,34.53
2023-01-04T16:50:15.313Z,44.35
2023-01-04T16:52:43.777Z,35.38
2023-01-04T16:55:12.589Z,44.42
2023-01-04T16:57:40.871Z,40.30
2023-01-04T17:00:11.115Z,39.55
2023-01-04T17:02:40.048Z,39.92
2023-01-04T17:05:11.094Z,38.10
2023-01-04T17:07:39.937Z,47.42
2023-01-04T17:10:09.595Z,55.55
2023-01-04T17:12:47.723Z,40.97
2023-01-04T17:18:07.719Z,50.08
2023-01-04T17:20:38.109Z,49.38
2023-01-04T17:23:07.119Z,44.00
2023-01-04T17:25:35.813Z,45.70
2023-01-04T17:28:04.181Z,37.50
2023-01-04T17:30:32.642Z,41.92
2023-01-04T17:33:01.315Z,36.38
2023-01-04T17:35:30.241Z,51.08
2023-01-04T17:38:00.071Z,51.40
2023-01-04T17:40:28.806Z,48.78
2023-01-04T17:43:00.662Z,40.13
2023-01-04T17:45:29.358Z,52.90
2023-01-04T17:47:57.918Z,44.90
2023-01-04T17:50:26.335Z,49.00
2023-01-04T17:52:55.109Z,58.90
2023-01-04T17:55:25.159Z,54.65
2023-01-04T17:57:53.679Z,53.25
2023-01-04T18:00:22.788Z,55.88
2023-01-04T18:02:51.197Z,63.42
2023-01-04T18:05:19.646Z,53.10
2023-01-04T18:07:47.903Z,60.42
2023-01-04T18:10:27.067Z,45.53
2023-01-04T18:13:03.378Z,49.78
2023-01-04T18:15:32.512Z,59.20
2023-01-04T18:18:02.541Z,52.85
2023-01-04T18:20:31.272Z,55.50
2023-01-04T18:22:59.597Z,56.00
2023-01-04T18:25:28.225Z,61.83
2023-01-04T18:27:56.633Z,52.25
2023-01-04T18:30:27.082Z,56.20
2023-01-04T18:32:55.507Z,56.63
2023-01-04T18:35:24.177Z,52.80
2023-01-04T18:37:52.460Z,48.42
2023-01-04T18:40:21.155Z,55.42
2023-01-04T18:42:50.053Z,45.58
2023-01-04T18:45:19.698Z,55.03
2023-01-04T18:47:49.824Z,59.70
2023-01-04T18:50:19.864Z,48.17
2023-01-04T18:52:48.412Z,59.97
2023-01-04T18:55:17.058Z,46.83
2023-01-04T18:57:45.798Z,48.80
2023-01-04T19:00:18.584Z,50.08
2023-01-04T19:02:48.515Z,43.28
2023-01-04T19:05:18.953Z,53.22
2023-01-04T19:07:47.334Z,56.25
2023-01-04T19:10:19.334Z,48.50
2023-01-04T19:12:52.822Z,46.63
2023-01-04T19:15:21.137Z,47.42
2023-01-04T19:17:51.483Z,44.80
2023-01-04T19:20:20.066Z,48.55
2023-01-04T19:22:48.782Z,52.78
2023-01-04T19:25:17.382Z,53.38
2023-01-04T19:27:46.797Z,46.00
2023-01-04T19:30:17.538Z,44.83
2023-01-04T19:32:45.922Z,48.20
2023-01-04T19:35:16.147Z,47.17
2023-01-04T19:37:44.610Z,48.80
2023-01-04T19:40:13.534Z,41.90
2023-01-04T19:42:43.387Z,46.15
2023-01-04T19:45:14.659Z,48.17
2023-01-04T19:47:43.082Z,50.17
2023-01-04T19:50:11.696Z,41.13
2023-01-04T19:52:41.932Z,48.92
2023-01-04T19:55:11.789Z,47.08
2023-01-04T19:57:40.140Z,44.13
2023-01-04T20:00:11.454Z,44.53
2023-01-04T20:02:40.028Z,40.92
2023-01-04T20:05:09.276Z,45.20
2023-01-04T20:07:37.701Z,43.35
2023-01-04T20:10:14.175Z,44.63
2023-01-04T20:12:42.937Z,54.33
2023-01-04T20:15:13.565Z,49.22
2023-01-04T20:17:42.471Z,46.47
2023-01-04T20:20:11.576Z,45.58
2023-01-04T20:22:39.947Z,45.08
2023-01-04T20:25:11.546Z,49.70
2023-01-04T20:27:40.264Z,39.33
2023-01-04T20:30:11.194Z,42.45
2023-01-04T20:32:40.458Z,44.92
2023-01-04T20:35:09.975Z,40.03
2023-01-04T20:37:41.597Z,45.17
2023-01-04T20:40:14.098Z,36.95
2023-01-04T20:43:00.172Z,46.65
2023-01-04T20:45:29.292Z,44.95
2023-01-04T20:47:57.564Z,49.92
2023-01-04T20:50:26.150Z,51.17
2023-01-04T20:52:54.594Z,52.50
2023-01-04T20:55:24.944Z,55.83
2023-01-04T20:57:53.467Z,46.30
2023-01-04T21:00:22.047Z,49.83
2023-01-04T21:02:50.786Z,46.00
2023-01-04T21:05:24.726Z,41.35
2023-01-04T21:07:56.142Z,43.83
2023-01-04T21:10:28.841Z,51.67
2023-01-04T21:12:57.202Z,52.42
2023-01-04T21:15:25.781Z,43.63
2023-01-04T21:17:54.674Z,42.40
2023-01-04T21:20:24.782Z,42.90
2023-01-04T21:22:53.569Z,41.90
2023-01-04T21:25:25.273Z,45.80
2023-01-04T21:28:06.618Z,46.90
2023-01-04T21:30:35.724Z,42.30
2023-01-04T21:33:04.194Z,43.88
2023-01-04T21:35:32.628Z,43.03
2023-01-04T21:38:01.052Z,52.20
2023-01-04T21:40:29.849Z,42.97
2023-01-04T21:42:59.673Z,45.17
2023-01-04T21:45:28.335Z,41.83
2023-01-04T21:47:57.626Z,48.15
2023-01-04T21:50:30.633Z,40.80
2023-01-04T21:52:59.324Z,44.22
2023-01-04T21:55:33.859Z,41.88
2023-01-04T21:58:05.412Z,48.35
2023-01-04T22:00:34.211Z,43.53
2023-01-04T22:03:02.702Z,35.30
2023-01-04T22:05:36.195Z,33.80
2023-01-04T22:08:04.745Z,40.95
2023-01-04T22:10:33.502Z,37.10
2023-01-04T22:13:03.516Z,38.88
2023-01-04T22:15:32.018Z,48.90
2023-01-04T22:18:00.339Z,51.88
2023-01-04T22:20:28.664Z,42.38
2023-01-04T22:22:57.020Z,47.95
2023-01-04T22:25:25.549Z,49.72
2023-01-04T22:27:53.845Z,45.40
2023-01-04T22:30:23.998Z,37.67
2023-01-04T22:32:52.271Z,45.72
2023-01-04T22:35:21.164Z,42.25
2023-01-04T22:37:49.846Z,51.13
2023-01-04T22:40:18.403Z,42.80
2023-01-04T22:42:46.680Z,40.97
2023-01-04T22:45:18.372Z,52.92
2023-01-04T22:47:48.120Z,37.80
2023-01-04T22:50:16.579Z,39.47
2023-01-04T22:52:50.819Z,43.40
2023-01-04T22:55:19.697Z,42.53
2023-01-04T22:57:48.090Z,40.53
2023-01-04T23:00:17.045Z,43.95
2023-01-04T23:02:45.401Z,46.53
2023-01-04T23:05:15.222Z,46.58
2023-01-04T23:07:43.515Z,47.55
2023-01-04T23:10:11.866Z,53.55
2023-01-04T23:12:40.148Z,44.92
2023-01-04T23:15:10.340Z,42.60
2023-01-04T23:17:38.757Z,52.38
2023-01-04T23:20:10.554Z,44.30
2023-01-04T23:22:42.536Z,44.97
2023-01-04T23:25:11.279Z,46.53
2023-01-04T23:27:39.530Z,56.83
2023-01-04T23:30:09.428Z,46.45
2023-01-04T23:32:37.752Z,50.58
2023-01-04T23:35:07.487Z,50.60
2023-01-04T23:37:35.969Z,44.05
2023-01-04T23:40:06.963Z,46.00
2023-01-04T23:42:39.578Z,50.15
2023-01-04T23:45:09.526Z,47.20
2023-01-04T23:47:37.900Z,45.40
2023-01-04T23:50:07.181Z,44.63
2023-01-04T23:52:35.466Z,49.03
2023-01-04T23:55:05.749Z,42.58
2023-01-04T23:57:34.001Z,40.63
